Puerto Vallarta, JAL, Mexico
Current Conditions -  °F | °C
As of 9:44 PM on Friday 19 Dec 2014 (Local Time) from MMPR Reporting Station
Clear Clear  
Wind Chill: 70°   Ceiling: Unl
Heat Index: 70°   Visibility: 8mi
Dew Point: 66°   Wind: 5mph
Humidity: 88%   Direction: 30°NNE
Pressure: 29.93"   Gusts: NA
Location:  20.62°N, 105.23°W
Report Text: MMPR 200344Z 03004KT 8SM SKC 21/19 A2993 RMK HZY
Loading
Personal Weather Stations






























Interactive Weather Map New forecast layout! Learn more

10-Day Weather Forecast

Advertisements
Track Severe Weather on mobile